Time;durP1;ratioP1;P1;durP2;ratioP2;P2;SDS_P1;SDS_P2;PMS_P1;PMS_P2;Temp;Humidity;BMP_temperature;BMP_pressure;BME280_temperature;BME280_humidity;BME280_pressure;Samples;Min_cycle;Max_cycle;Signal;HPM_P1;HPM_P2
2021/10/10 00:00:09;;;;;;;11.87;8.17;;;2.90;96.70;;;;;;2074424;28;20177;-66
2021/10/10 00:01:10;;;;;;;12.50;8.73;;;2.90;96.80;;;;;;2074272;28;20178;-66
2021/10/10 00:02:10;;;;;;;18.17;9.07;;;2.90;96.80;;;;;;2074382;28;20562;-66
2021/10/10 00:03:11;;;;;;;14.43;9.30;;;2.90;96.70;;;;;;2074378;28;20279;-66
2021/10/10 00:04:12;;;;;;;13.33;8.27;;;2.80;96.60;;;;;;2074409;28;20209;-65
2021/10/10 00:05:13;;;;;;;14.93;8.93;;;2.80;96.60;;;;;;2074421;28;20213;-66
2021/10/10 00:06:13;;;;;;;16.67;8.87;;;2.90;96.50;;;;;;2074455;28;20548;-67
2021/10/10 00:07:14;;;;;;;12.97;8.40;;;2.80;96.30;;;;;;2074402;28;20604;-66
2021/10/10 00:08:15;;;;;;;14.33;8.90;;;2.80;96.30;;;;;;2074361;28;20678;-65
2021/10/10 00:09:15;;;;;;;14.37;8.03;;;2.80;96.20;;;;;;2074422;28;20198;-67
2021/10/10 00:10:17;;;;;;;15.43;9.73;;;2.80;96.30;;;;;;2074532;28;20677;-66
2021/10/10 00:11:18;;;;;;;19.75;9.80;;;2.80;96.20;;;;;;2073523;28;20286;-66
2021/10/10 00:12:18;;;;;;;14.97;9.30;;;2.80;96.30;;;;;;2073679;28;20182;-66
2021/10/10 00:13:19;;;;;;;14.63;9.37;;;2.80;96.40;;;;;;2074381;28;20182;-65
2021/10/10 00:14:20;;;;;;;17.87;9.80;;;2.80;96.40;;;;;;2074338;28;20186;-66
2021/10/10 00:15:20;;;;;;;17.80;9.53;;;2.70;96.60;;;;;;2074318;28;20614;-65
2021/10/10 00:16:21;;;;;;;19.77;10.37;;;2.70;96.50;;;;;;2074438;28;20257;-65
2021/10/10 00:17:22;;;;;;;14.80;9.32;;;2.70;96.40;;;;;;2074248;28;20186;-66
2021/10/10 00:18:23;;;;;;;14.67;9.27;;;2.70;96.30;;;;;;2074429;28;20190;-65
2021/10/10 00:19:23;;;;;;;19.50;9.57;;;2.70;96.20;;;;;;2074378;28;20641;-67
2021/10/10 00:20:24;;;;;;;14.10;8.33;;;2.70;96.20;;;;;;2074364;28;20214;-66
2021/10/10 00:21:25;;;;;;;13.87;8.30;;;2.60;96.30;;;;;;2074156;28;20240;-66
2021/10/10 00:22:26;;;;;;;13.43;8.37;;;2.60;96.40;;;;;;2074270;28;20210;-67
2021/10/10 00:23:27;;;;;;;18.65;9.80;;;2.60;96.40;;;;;;2073709;28;20187;-65
2021/10/10 00:24:28;;;;;;;16.03;9.07;;;2.60;96.40;;;;;;2073633;28;20208;-66
2021/10/10 00:25:28;;;;;;;14.03;8.30;;;2.60;96.40;;;;;;2074287;28;20681;-66
2021/10/10 00:26:29;;;;;;;13.33;8.93;;;2.60;96.50;;;;;;2074450;28;20212;-66
2021/10/10 00:27:30;;;;;;;15.30;8.67;;;2.50;96.60;;;;;;2074193;28;20186;-66
2021/10/10 00:28:31;;;;;;;18.17;9.40;;;2.60;96.60;;;;;;2074098;28;20206;-65
2021/10/10 00:29:31;;;;;;;17.53;9.43;;;2.60;96.50;;;;;;2074177;28;20557;-66
2021/10/10 00:30:32;;;;;;;14.77;8.30;;;2.60;96.60;;;;;;2074254;28;20192;-66
2021/10/10 00:31:33;;;;;;;17.33;8.83;;;2.60;96.60;;;;;;2073919;28;21048;-65
2021/10/10 00:32:34;;;;;;;14.53;8.47;;;2.60;96.50;;;;;;2074072;28;20178;-65
2021/10/10 00:33:35;;;;;;;17.42;9.05;;;2.50;96.30;;;;;;2073966;28;20182;-65
2021/10/10 00:34:35;;;;;;;14.23;8.50;;;2.50;96.30;;;;;;2074148;28;20632;-66
2021/10/10 00:35:36;;;;;;;13.37;8.30;;;2.50;96.40;;;;;;2074117;28;20213;-66
2021/10/10 00:36:37;;;;;;;14.63;8.20;;;2.50;96.50;;;;;;2074345;28;20772;-66
2021/10/10 00:37:38;;;;;;;12.57;8.37;;;2.50;96.40;;;;;;2074013;28;20597;-65
2021/10/10 00:38:39;;;;;;;13.67;8.27;;;2.40;96.40;;;;;;2074132;28;20555;-66
2021/10/10 00:39:39;;;;;;;13.55;8.10;;;2.40;96.50;;;;;;2074146;28;20187;-66
2021/10/10 00:40:40;;;;;;;16.40;10.00;;;2.40;96.50;;;;;;2074130;28;20557;-66
2021/10/10 00:41:41;;;;;;;14.85;8.77;;;2.40;96.50;;;;;;2073399;28;20178;-66
2021/10/10 00:42:42;;;;;;;15.63;9.37;;;2.30;96.40;;;;;;2073407;28;20647;-66
2021/10/10 00:43:43;;;;;;;17.90;8.77;;;2.30;96.20;;;;;;2074152;28;20178;-66
2021/10/10 00:44:47;;;;;;;12.60;8.27;;;2.30;96.10;;;;;;2073897;28;20207;-65
2021/10/10 00:45:50;;;;;;;13.15;7.40;;;2.30;95.90;;;;;;2073428;28;20626;-67
2021/10/10 00:46:51;;;;;;;11.30;7.22;;;2.30;95.80;;;;;;2073522;28;20255;-66
2021/10/10 00:47:52;;;;;;;15.90;7.83;;;2.30;95.60;;;;;;2073893;28;20182;-66
2021/10/10 00:48:52;;;;;;;12.43;7.23;;;2.30;95.60;;;;;;2073347;28;20182;-66
2021/10/10 00:49:53;;;;;;;15.83;8.53;;;2.30;95.60;;;;;;2073364;28;20257;-66
2021/10/10 00:50:54;;;;;;;14.53;8.40;;;2.20;95.50;;;;;;2073872;28;20669;-66
2021/10/10 00:51:58;;;;;;;14.27;8.97;;;2.20;95.90;;;;;;2073838;28;20653;-67
2021/10/10 00:53:01;;;;;;;12.57;8.57;;;2.20;96.00;;;;;;2073978;28;20622;-66
2021/10/10 00:54:04;;;;;;;12.10;7.78;;;2.20;96.10;;;;;;2074052;28;20253;-65
2021/10/10 00:55:06;;;;;;;17.70;8.55;;;2.20;96.10;;;;;;2073758;28;20298;-66
2021/10/10 00:56:07;;;;;;;14.57;8.43;;;2.20;96.20;;;;;;2074018;28;20224;-66
2021/10/10 00:57:09;;;;;;;14.95;7.90;;;2.10;96.20;;;;;;2074068;28;20186;-66
2021/10/10 00:58:12;;;;;;;12.32;7.32;;;2.10;96.10;;;;;;2073995;28;20186;-66
2021/10/10 00:59:14;;;;;;;12.77;7.30;;;2.10;96.00;;;;;;2073977;28;20272;-67
2021/10/10 01:00:15;;;;;;;12.20;7.10;;;2.10;96.00;;;;;;2073870;28;20228;-67
2021/10/10 01:01:16;;;;;;;12.35;7.05;;;2.10;96.10;;;;;;2073132;28;20563;-66
2021/10/10 01:02:17;;;;;;;14.63;7.63;;;2.10;96.20;;;;;;2073315;28;20190;-65
2021/10/10 01:03:18;;;;;;;14.20;7.97;;;2.00;96.20;;;;;;2073963;28;20227;-66
2021/10/10 01:04:19;;;;;;;15.18;8.52;;;2.00;96.30;;;;;;2073927;28;20218;-66
2021/10/10 01:05:20;;;;;;;14.70;7.95;;;2.10;96.50;;;;;;2073300;28;20181;-66
2021/10/10 01:06:20;;;;;;;11.03;7.53;;;2.00;96.40;;;;;;2073132;28;20613;-67
2021/10/10 01:07:21;;;;;;;11.37;7.73;;;2.00;96.90;;;;;;2073697;28;20182;-66
2021/10/10 01:08:22;;;;;;;9.27;6.67;;;2.00;96.30;;;;;;2073895;28;20713;-66
2021/10/10 01:09:23;;;;;;;12.83;6.50;;;2.00;96.20;;;;;;2073994;28;20170;-66
2021/10/10 01:10:23;;;;;;;10.80;7.20;;;2.00;96.40;;;;;;2073918;28;20185;-65
2021/10/10 01:11:28;;;;;;;12.23;7.33;;;2.00;96.40;;;;;;2073678;28;20193;-65
2021/10/10 01:12:28;;;;;;;11.18;7.55;;;1.90;96.40;;;;;;2073863;28;20183;-65
2021/10/10 01:13:30;;;;;;;16.47;7.90;;;2.00;96.60;;;;;;2073867;28;20181;-66
2021/10/10 01:14:33;;;;;;;14.18;7.63;;;1.90;96.50;;;;;;2073105;28;20178;-66
2021/10/10 01:15:34;;;;;;;12.15;7.25;;;1.90;96.50;;;;;;2073014;28;20189;-65
2021/10/10 01:16:35;;;;;;;11.25;7.15;;;1.90;96.50;;;;;;2080748;28;20640;-65
2021/10/10 01:17:36;;;;;;;12.33;6.80;;;1.80;96.40;;;;;;2081315;28;20189;-65
2021/10/10 01:18:37;;;;;;;12.32;7.32;;;1.80;96.40;;;;;;2082137;28;20217;-66
2021/10/10 01:19:39;;;;;;;12.30;7.33;;;1.80;96.20;;;;;;2081884;28;20537;-65
2021/10/10 01:20:46;;;;;;;18.73;8.32;;;1.80;96.20;;;;;;2081476;28;20733;-66
2021/10/10 01:21:47;;;;;;;12.00;7.57;;;1.80;96.20;;;;;;2081077;28;20664;-66
2021/10/10 01:22:48;;;;;;;15.80;8.10;;;1.80;96.40;;;;;;2081895;28;20193;-66
2021/10/10 01:23:49;;;;;;;16.00;8.13;;;1.80;96.60;;;;;;2081911;28;20207;-65
2021/10/10 01:24:49;;;;;;;16.40;8.80;;;1.80;96.70;;;;;;2081849;28;20205;-65
2021/10/10 01:25:51;;;;;;;13.60;8.23;;;1.80;96.90;;;;;;2081829;28;20420;-65
2021/10/10 01:26:52;;;;;;;17.27;8.90;;;1.80;97.00;;;;;;2081905;28;20177;-65
2021/10/10 01:27:52;;;;;;;14.17;8.00;;;1.80;97.20;;;;;;2081766;28;20216;-66
2021/10/10 01:28:53;;;;;;;14.90;9.17;;;1.90;97.30;;;;;;2082068;28;20185;-66
2021/10/10 01:29:54;;;;;;;14.83;9.00;;;1.80;97.30;;;;;;2081738;28;20185;-66
2021/10/10 01:30:55;;;;;;;15.33;8.03;;;1.90;97.20;;;;;;2081893;28;20262;-65
2021/10/10 01:31:55;;;;;;;14.80;8.87;;;1.90;97.10;;;;;;2081557;28;20636;-66
2021/10/10 01:32:56;;;;;;;14.50;8.43;;;1.90;97.10;;;;;;2081838;28;20604;-66
2021/10/10 01:33:57;;;;;;;16.35;9.18;;;1.90;97.10;;;;;;2081981;28;20203;-67
2021/10/10 01:34:58;;;;;;;15.97;8.70;;;1.90;97.10;;;;;;2081798;28;20196;-66
2021/10/10 01:35:59;;;;;;;15.03;9.50;;;1.90;97.10;;;;;;2081702;28;20178;-64
2021/10/10 01:37:00;;;;;;;15.10;9.02;;;1.90;97.00;;;;;;2081255;28;20197;-65
2021/10/10 01:38:01;;;;;;;16.20;7.97;;;1.90;96.80;;;;;;2081148;28;20177;-64
2021/10/10 01:39:03;;;;;;;14.23;8.20;;;1.90;96.80;;;;;;2081868;28;20169;-66
2021/10/10 01:40:05;;;;;;;14.75;8.65;;;1.90;96.70;;;;;;2081789;28;20547;-65
2021/10/10 01:41:08;;;;;;;19.05;8.23;;;1.90;96.70;;;;;;2081539;28;20188;-66
2021/10/10 01:42:08;;;;;;;14.73;8.63;;;1.80;96.80;;;;;;2081084;28;20177;-65
2021/10/10 01:43:09;;;;;;;14.10;8.70;;;1.80;96.60;;;;;;2081058;28;20183;-67
2021/10/10 01:44:17;;;;;;;15.03;8.50;;;1.80;96.60;;;;;;2076140;28;20641;-66
2021/10/10 01:45:21;;;;;;;14.88;8.45;;;1.80;96.20;;;;;;2073763;28;20225;-66
2021/10/10 01:46:22;;;;;;;15.02;8.73;;;1.80;96.30;;;;;;2073647;28;20196;-69
2021/10/10 01:47:22;;;;;;;14.33;8.10;;;1.80;96.40;;;;;;2073645;28;20188;-65
2021/10/10 01:48:23;;;;;;;13.80;8.50;;;1.80;96.90;;;;;;2073352;28;20202;-66
2021/10/10 01:49:24;;;;;;;18.67;8.20;;;1.80;96.20;;;;;;2073747;28;20247;-65
2021/10/10 01:50:25;;;;;;;12.35;7.70;;;1.80;96.10;;;;;;2073426;28;20204;-66
2021/10/10 01:51:26;;;;;;;11.57;6.90;;;1.70;95.90;;;;;;2073526;28;20696;-66
2021/10/10 01:52:27;;;;;;;12.43;6.90;;;1.70;96.00;;;;;;2073522;28;20178;-65
2021/10/10 01:53:27;;;;;;;13.48;7.25;;;1.70;96.10;;;;;;2073371;28;20205;-66
2021/10/10 01:54:28;;;;;;;11.47;7.80;;;1.70;96.30;;;;;;2073353;28;20532;-66
2021/10/10 01:55:29;;;;;;;13.43;7.30;;;1.70;96.10;;;;;;2073424;28;20184;-66
2021/10/10 01:56:30;;;;;;;14.52;8.57;;;1.70;96.10;;;;;;2072922;28;20178;-65
2021/10/10 01:57:31;;;;;;;11.85;7.72;;;1.60;96.10;;;;;;2072984;28;20673;-65
2021/10/10 01:58:32;;;;;;;11.70;7.70;;;1.60;96.30;;;;;;2073492;28;20177;-67
2021/10/10 01:59:32;;;;;;;15.27;8.30;;;1.60;96.20;;;;;;2073326;28;20664;-68
2021/10/10 02:00:33;;;;;;;11.37;7.93;;;1.60;96.10;;;;;;2073563;28;20276;-66
2021/10/10 02:01:34;;;;;;;12.07;7.70;;;1.60;96.30;;;;;;2073116;28;20582;-66
2021/10/10 02:02:35;;;;;;;20.60;8.37;;;1.60;96.30;;;;;;2073480;28;20242;-65
2021/10/10 02:03:35;;;;;;;15.27;8.60;;;1.60;96.50;;;;;;2073483;28;20182;-65
2021/10/10 02:04:36;;;;;;;15.83;8.30;;;1.60;96.70;;;;;;2073244;28;20205;-66
2021/10/10 02:05:37;;;;;;;16.13;8.70;;;1.60;96.90;;;;;;2073404;28;20232;-65
2021/10/10 02:06:38;;;;;;;14.23;8.03;;;1.60;97.00;;;;;;2073499;28;20660;-65
2021/10/10 02:07:39;;;;;;;11.93;7.90;;;1.50;96.80;;;;;;2073322;28;20269;-65
2021/10/10 02:08:40;;;;;;;10.85;7.05;;;1.50;96.70;;;;;;2072833;28;20293;-66
2021/10/10 02:09:42;;;;;;;13.53;8.07;;;1.50;96.80;;;;;;2072674;28;20224;-66
2021/10/10 02:10:44;;;;;;;17.20;9.15;;;1.50;96.80;;;;;;2073291;28;20631;-65
2021/10/10 02:11:44;;;;;;;15.52;8.38;;;1.50;96.90;;;;;;2072663;28;20181;-65
2021/10/10 02:12:45;;;;;;;17.17;8.53;;;1.50;97.10;;;;;;2072864;28;20527;-65
2021/10/10 02:13:46;;;;;;;13.90;8.60;;;1.60;97.00;;;;;;2073360;28;20182;-65
2021/10/10 02:14:47;;;;;;;14.13;8.10;;;1.60;96.90;;;;;;2073020;28;20205;-66
2021/10/10 02:15:47;;;;;;;14.87;7.67;;;1.50;97.00;;;;;;2072499;28;20190;-65
2021/10/10 02:16:48;;;;;;;13.37;7.67;;;1.50;97.00;;;;;;2072806;28;20277;-65
2021/10/10 02:17:49;;;;;;;14.40;7.80;;;1.40;96.90;;;;;;2072726;28;20262;-65
2021/10/10 02:18:49;;;;;;;16.10;7.80;;;1.40;96.90;;;;;;2072081;28;20631;-66
2021/10/10 02:19:50;;;;;;;14.07;8.10;;;1.40;96.90;;;;;;2080657;28;20185;-65
2021/10/10 02:20:51;;;;;;;11.23;7.30;;;1.40;96.80;;;;;;2081545;28;20644;-66
2021/10/10 02:21:52;;;;;;;12.88;8.07;;;1.40;96.70;;;;;;2081215;28;20177;-65
2021/10/10 02:22:53;;;;;;;15.15;7.68;;;1.40;96.40;;;;;;2081587;28;20235;-66
2021/10/10 02:23:53;;;;;;;12.70;7.70;;;1.40;96.40;;;;;;2081505;28;20226;-66
2021/10/10 02:24:54;;;;;;;15.83;7.93;;;1.40;96.20;;;;;;2081661;28;20288;-65
2021/10/10 02:25:55;;;;;;;13.57;7.70;;;1.40;96.10;;;;;;2081483;28;20260;-65
2021/10/10 02:26:55;;;;;;;10.67;7.00;;;1.40;96.00;;;;;;2081662;28;20264;-65
2021/10/10 02:27:56;;;;;;;12.90;7.93;;;1.40;96.00;;;;;;2081488;28;20196;-64
2021/10/10 02:28:57;;;;;;;17.30;7.87;;;1.40;95.90;;;;;;2081534;28;20188;-65
2021/10/10 02:29:58;;;;;;;12.50;7.30;;;1.40;95.70;;;;;;2081550;28;20279;-65
2021/10/10 02:30:59;;;;;;;13.75;7.35;;;1.40;95.60;;;;;;2081556;28;20205;-66
2021/10/10 02:31:59;;;;;;;12.10;7.83;;;1.40;95.80;;;;;;2081232;28;20181;-64
2021/10/10 02:33:00;;;;;;;13.50;7.60;;;1.40;96.00;;;;;;2081644;28;20247;-65
2021/10/10 02:34:01;;;;;;;16.33;8.30;;;1.40;96.30;;;;;;2081413;28;20215;-66
2021/10/10 02:35:01;;;;;;;16.40;8.00;;;1.30;96.70;;;;;;2081491;28;20255;-65
2021/10/10 02:36:02;;;;;;;15.20;8.80;;;1.30;97.60;;;;;;2081421;28;20537;-65
2021/10/10 02:37:03;;;;;;;13.10;8.70;;;1.20;97.60;;;;;;2081376;28;20168;-66
2021/10/10 02:38:04;;;;;;;16.63;7.97;;;1.20;97.90;;;;;;2081475;28;20204;-65
2021/10/10 02:39:04;;;;;;;14.43;7.97;;;1.10;98.10;;;;;;2081483;28;20181;-65
2021/10/10 02:40:09;;;;;;;16.20;8.53;;;1.00;98.10;;;;;;2081505;28;20556;-65
2021/10/10 02:41:10;;;;;;;15.13;8.73;;;1.00;98.10;;;;;;2081251;28;20185;-65
2021/10/10 02:42:11;;;;;;;16.90;8.53;;;1.00;98.00;;;;;;2081352;28;20543;-65
2021/10/10 02:43:11;;;;;;;15.33;8.10;;;1.00;97.90;;;;;;2081444;28;20293;-66
2021/10/10 02:44:12;;;;;;;17.77;8.37;;;1.10;98.10;;;;;;2081422;28;20538;-65
2021/10/10 02:45:13;;;;;;;16.20;9.77;;;1.10;98.10;;;;;;2080816;28;20192;-65
2021/10/10 02:46:13;;;;;;;23.70;10.07;;;1.10;98.00;;;;;;2080762;28;20226;-65
2021/10/10 02:47:14;;;;;;;16.47;8.77;;;1.10;98.00;;;;;;2081396;28;20184;-65
2021/10/10 02:48:15;;;;;;;15.63;9.33;;;1.20;97.90;;;;;;2081216;28;20201;-65
2021/10/10 02:49:15;;;;;;;15.67;9.67;;;1.20;97.90;;;;;;2081467;28;20192;-66
2021/10/10 02:50:16;;;;;;;16.03;9.23;;;1.20;97.80;;;;;;2081280;28;20177;-65
2021/10/10 02:51:17;;;;;;;17.17;9.57;;;1.20;97.70;;;;;;2081316;28;20181;-64
2021/10/10 02:52:18;;;;;;;17.63;8.87;;;1.20;97.60;;;;;;2081429;28;20639;-66
2021/10/10 02:53:19;;;;;;;16.50;8.60;;;1.20;97.60;;;;;;2081404;28;20256;-67
2021/10/10 02:54:20;;;;;;;16.23;8.43;;;1.20;97.60;;;;;;2081438;28;20172;-65
2021/10/10 02:55:21;;;;;;;18.23;9.47;;;1.20;97.50;;;;;;2081595;28;20212;-65
2021/10/10 02:56:21;;;;;;;13.97;8.40;;;1.20;97.40;;;;;;2081300;28;20169;-67
2021/10/10 02:57:22;;;;;;;14.37;8.67;;;1.20;97.30;;;;;;2081619;28;20177;-66
2021/10/10 02:58:23;;;;;;;14.17;8.87;;;1.20;97.20;;;;;;2081382;28;20562;-65
2021/10/10 02:59:23;;;;;;;18.67;9.63;;;1.20;97.30;;;;;;2081502;28;20674;-66
2021/10/10 03:00:24;;;;;;;19.90;9.50;;;1.20;97.40;;;;;;2081505;28;20270;-65
2021/10/10 03:01:25;;;;;;;15.37;9.27;;;1.30;97.60;;;;;;2081149;28;20206;-65
2021/10/10 03:02:25;;;;;;;17.03;8.63;;;1.30;97.50;;;;;;2081417;28;20534;-66
2021/10/10 03:03:26;;;;;;;17.43;9.53;;;1.30;97.40;;;;;;2081295;28;20177;-66
2021/10/10 03:04:27;;;;;;;15.87;9.70;;;1.40;97.30;;;;;;2081559;28;20177;-65
2021/10/10 03:05:28;;;;;;;17.43;9.97;;;1.40;97.40;;;;;;2081389;28;20196;-66
2021/10/10 03:06:28;;;;;;;15.60;9.20;;;1.40;97.30;;;;;;2081559;28;20185;-65
2021/10/10 03:07:29;;;;;;;21.30;10.40;;;1.40;97.20;;;;;;2081350;28;20189;-65
2021/10/10 03:08:30;;;;;;;20.50;9.05;;;1.50;97.20;;;;;;2081536;28;20209;-65
2021/10/10 03:09:31;;;;;;;22.27;10.83;;;1.50;97.30;;;;;;2081382;28;20196;-65
2021/10/10 03:10:31;;;;;;;15.07;9.93;;;1.50;97.40;;;;;;2081752;28;20169;-66
2021/10/10 03:11:32;;;;;;;19.73;10.77;;;1.50;97.50;;;;;;2081184;28;20185;-64
2021/10/10 03:12:33;;;;;;;22.17;11.67;;;1.50;97.70;;;;;;2081574;28;20173;-65
2021/10/10 03:13:33;;;;;;;17.30;9.53;;;1.50;97.60;;;;;;2081264;28;20648;-66
2021/10/10 03:14:34;;;;;;;15.70;9.80;;;1.50;97.60;;;;;;2081124;28;20177;-66
2021/10/10 03:15:37;;;;;;;18.93;11.07;;;1.50;97.60;;;;;;2081348;28;20227;-64
2021/10/10 03:16:38;;;;;;;20.80;10.98;;;1.60;97.60;;;;;;2081252;28;20223;-66
2021/10/10 03:17:39;;;;;;;20.83;11.53;;;1.60;97.50;;;;;;2081251;28;20181;-64
2021/10/10 03:18:40;;;;;;;28.07;12.33;;;1.60;97.40;;;;;;2081512;28;20714;-65
2021/10/10 03:19:40;;;;;;;21.97;10.83;;;1.60;97.60;;;;;;2081123;28;20238;-66
2021/10/10 03:20:41;;;;;;;19.83;10.23;;;1.60;97.60;;;;;;2081238;28;20184;-66
2021/10/10 03:21:42;;;;;;;17.63;9.93;;;1.60;97.70;;;;;;2080925;28;20177;-65
2021/10/10 03:22:42;;;;;;;15.50;9.63;;;1.60;97.70;;;;;;2080984;28;20593;-66
2021/10/10 03:23:43;;;;;;;14.80;9.27;;;1.60;97.60;;;;;;2081218;28;20177;-66
2021/10/10 03:24:44;;;;;;;14.73;8.93;;;1.60;97.60;;;;;;2081305;28;20252;-66
2021/10/10 03:25:45;;;;;;;18.90;9.43;;;1.50;97.60;;;;;;2081195;28;20633;-66
2021/10/10 03:26:45;;;;;;;15.93;9.68;;;1.50;97.60;;;;;;2080600;28;20256;-65
2021/10/10 03:27:46;;;;;;;19.70;9.77;;;1.50;97.50;;;;;;2081942;28;20296;-66
2021/10/10 03:28:47;;;;;;;16.87;9.97;;;1.50;97.50;;;;;;2082673;28;20220;-66
2021/10/10 03:29:48;;;;;;;17.30;10.00;;;1.50;97.40;;;;;;2082670;28;20181;-65
2021/10/10 03:30:48;;;;;;;19.70;10.67;;;1.50;97.40;;;;;;2082664;28;20181;-66
2021/10/10 03:31:49;;;;;;;17.90;10.03;;;1.50;97.30;;;;;;2082464;28;20640;-66
2021/10/10 03:32:50;;;;;;;18.10;10.60;;;1.50;97.20;;;;;;2082840;28;20690;-65
2021/10/10 03:33:50;;;;;;;19.60;9.73;;;1.40;97.30;;;;;;2082641;28;20238;-65
2021/10/10 03:34:51;;;;;;;19.50;10.63;;;1.40;97.40;;;;;;2082657;28;20220;-65
2021/10/10 03:35:52;;;;;;;14.23;9.27;;;1.40;97.40;;;;;;2082660;28;20173;-65
2021/10/10 03:36:52;;;;;;;17.70;9.23;;;1.40;97.40;;;;;;2082686;28;20215;-66
2021/10/10 03:37:53;;;;;;;18.47;10.63;;;1.40;97.50;;;;;;2082708;28;20189;-64
2021/10/10 03:38:54;;;;;;;21.00;9.97;;;1.30;97.50;;;;;;2082649;28;20600;-65
2021/10/10 03:39:56;;;;;;;17.23;9.13;;;1.30;97.60;;;;;;2082709;28;20176;-66
2021/10/10 03:40:56;;;;;;;16.35;9.50;;;1.30;97.80;;;;;;2082507;28;20663;-67
2021/10/10 03:41:57;;;;;;;19.63;9.83;;;1.30;97.80;;;;;;2082480;28;20177;-66
2021/10/10 03:42:58;;;;;;;14.57;8.93;;;1.30;97.70;;;;;;2082618;28;20650;-65
2021/10/10 03:43:58;;;;;;;14.80;9.00;;;1.30;97.70;;;;;;2082782;28;20265;-66
2021/10/10 03:44:59;;;;;;;13.53;8.50;;;1.30;98.20;;;;;;2082527;28;20228;-64
2021/10/10 03:46:00;;;;;;;17.30;9.23;;;1.30;97.50;;;;;;2082680;28;20201;-65
2021/10/10 03:47:00;;;;;;;15.53;8.80;;;1.30;97.50;;;;;;2082506;28;20205;-66
2021/10/10 03:48:01;;;;;;;17.67;9.43;;;1.20;97.50;;;;;;2082551;28;20208;-65
2021/10/10 03:49:02;;;;;;;14.73;8.97;;;1.20;97.30;;;;;;2082618;28;20548;-64
2021/10/10 03:50:04;;;;;;;15.73;8.70;;;1.20;97.30;;;;;;2082594;28;20211;-65
2021/10/10 03:51:05;;;;;;;12.82;8.77;;;1.20;97.30;;;;;;2082292;28;20273;-64
2021/10/10 03:52:06;;;;;;;16.73;8.63;;;1.20;97.30;;;;;;2080017;28;20674;-65
2021/10/10 03:53:07;;;;;;;18.05;9.85;;;1.20;97.30;;;;;;2074212;28;20181;-66
2021/10/10 03:56:33;;;;;;;15.50;9.30;;;1.20;97.00;;;;;;2074452;28;20170;-64
2021/10/10 03:57:34;;;;;;;15.50;9.10;;;1.10;97.20;;;;;;2074326;28;20174;-64
2021/10/10 03:58:38;;;;;;;16.50;9.63;;;1.20;97.20;;;;;;2074435;28;20553;-65
2021/10/10 03:59:41;;;;;;;16.95;9.80;;;1.10;97.30;;;;;;2074548;28;20392;-65
2021/10/10 04:00:42;;;;;;;16.05;9.55;;;1.10;97.30;;;;;;2074447;28;20185;-65
2021/10/10 04:01:43;;;;;;;17.48;8.88;;;1.10;97.30;;;;;;2074123;28;20185;-64
2021/10/10 04:02:43;;;;;;;15.60;9.68;;;1.10;97.40;;;;;;2074283;28;20247;-66
2021/10/10 04:03:44;;;;;;;18.23;9.43;;;1.10;97.40;;;;;;2074353;28;20194;-64
2021/10/10 04:04:45;;;;;;;16.47;10.17;;;1.10;97.40;;;;;;2074370;28;20214;-65
2021/10/10 04:05:47;;;;;;;19.73;10.83;;;1.10;97.40;;;;;;2074208;28;20185;-65
2021/10/10 04:06:47;;;;;;;20.27;10.95;;;1.10;97.50;;;;;;2074301;28;20185;-64
2021/10/10 04:07:49;;;;;;;21.87;12.07;;;1.10;97.60;;;;;;2074158;28;20182;-64
2021/10/10 04:08:50;;;;;;;17.83;10.45;;;1.20;97.70;;;;;;2073701;28;20213;-65
2021/10/10 04:09:51;;;;;;;17.05;10.48;;;1.20;97.80;;;;;;2073624;28;20193;-66
2021/10/10 04:10:52;;;;;;;21.52;10.55;;;1.20;97.90;;;;;;2074235;28;20178;-64
2021/10/10 04:11:53;;;;;;;20.63;12.23;;;1.20;97.90;;;;;;2073955;28;20186;-65
2021/10/10 04:12:53;;;;;;;19.23;10.73;;;1.20;98.00;;;;;;2074099;28;20178;-65
2021/10/10 04:13:54;;;;;;;18.40;10.90;;;1.20;98.10;;;;;;2074133;28;20184;-65
2021/10/10 04:14:55;;;;;;;28.13;11.30;;;1.20;98.10;;;;;;2074128;28;20193;-64
2021/10/10 04:15:55;;;;;;;19.77;10.60;;;1.20;98.30;;;;;;2074122;28;20201;-66
2021/10/10 04:16:56;;;;;;;19.53;10.70;;;1.20;98.40;;;;;;2074158;28;20324;-65
2021/10/10 04:17:57;;;;;;;18.13;10.30;;;1.20;98.20;;;;;;2074072;28;20269;-64
2021/10/10 04:18:57;;;;;;;18.03;10.20;;;1.20;98.10;;;;;;2074096;28;20258;-67
2021/10/10 04:19:58;;;;;;;16.07;9.97;;;1.20;98.00;;;;;;2074182;28;20197;-64
2021/10/10 04:20:59;;;;;;;20.73;9.97;;;1.20;97.90;;;;;;2074050;28;20170;-65
2021/10/10 04:22:00;;;;;;;18.97;10.43;;;1.20;97.90;;;;;;2074057;28;20593;-65
2021/10/10 04:23:01;;;;;;;15.73;9.55;;;1.20;97.90;;;;;;2074096;28;20233;-66
2021/10/10 04:24:01;;;;;;;17.93;10.30;;;1.20;97.80;;;;;;2073970;28;20178;-66
2021/10/10 04:25:03;;;;;;;16.87;10.53;;;1.20;97.80;;;;;;2074030;28;20630;-64
2021/10/10 04:26:04;;;;;;;17.92;10.32;;;1.20;97.70;;;;;;2074140;28;20181;-66
2021/10/10 04:27:05;;;;;;;18.03;9.20;;;1.10;98.10;;;;;;2074050;28;20193;-64
2021/10/10 04:28:05;;;;;;;18.93;10.33;;;1.20;97.50;;;;;;2073916;28;20189;-65
2021/10/10 04:29:06;;;;;;;15.87;9.70;;;1.10;97.50;;;;;;2074061;28;20178;-64
2021/10/10 04:30:12;;;;;;;16.53;9.00;;;1.10;97.50;;;;;;2073966;28;20680;-65
2021/10/10 04:31:12;;;;;;;15.50;8.98;;;1.10;97.60;;;;;;2073144;28;20221;-65
2021/10/10 04:32:13;;;;;;;16.37;9.53;;;1.10;97.60;;;;;;2073357;28;20665;-64
2021/10/10 04:33:14;;;;;;;16.90;9.50;;;1.10;98.20;;;;;;2074001;28;20185;-65
2021/10/10 04:34:16;;;;;;;15.97;9.17;;;1.10;97.60;;;;;;2073917;28;20174;-65
2021/10/10 04:35:17;;;;;;;16.45;9.15;;;1.00;97.70;;;;;;2074010;28;20225;-64
2021/10/10 04:36:17;;;;;;;18.10;9.80;;;1.00;97.60;;;;;;2074056;28;20596;-64
2021/10/10 04:37:18;;;;;;;16.57;9.40;;;1.00;97.70;;;;;;2073941;28;20180;-65
2021/10/10 04:38:18;;;;;;;16.17;9.27;;;1.00;97.60;;;;;;2073501;28;20557;-65
2021/10/10 04:39:19;;;;;;;18.27;9.80;;;1.00;97.70;;;;;;2073845;28;20186;-65
2021/10/10 04:40:20;;;;;;;15.80;10.17;;;1.10;97.70;;;;;;2073908;28;20181;-65
2021/10/10 04:41:21;;;;;;;17.53;10.43;;;1.00;97.70;;;;;;2073627;28;20649;-65
2021/10/10 04:42:21;;;;;;;19.70;10.50;;;1.00;97.70;;;;;;2073947;28;20194;-64
2021/10/10 04:43:22;;;;;;;20.63;11.03;;;1.10;97.90;;;;;;2073900;28;20685;-66
2021/10/10 04:44:23;;;;;;;19.87;11.23;;;1.10;97.90;;;;;;2073928;28;20178;-65
2021/10/10 04:45:23;;;;;;;20.03;10.37;;;1.10;97.90;;;;;;2073900;28;20181;-64
2021/10/10 04:46:24;;;;;;;18.63;10.80;;;1.10;97.90;;;;;;2073934;28;20209;-65
2021/10/10 04:47:25;;;;;;;21.07;11.97;;;1.10;98.00;;;;;;2073783;28;20220;-65
2021/10/10 04:48:26;;;;;;;18.33;10.83;;;1.10;97.90;;;;;;2073862;28;20209;-65
2021/10/10 04:49:26;;;;;;;20.00;10.77;;;1.10;97.70;;;;;;2074012;28;20206;-65
2021/10/10 04:50:27;;;;;;;20.13;10.00;;;1.10;97.70;;;;;;2073694;28;20565;-64
2021/10/10 04:51:28;;;;;;;22.87;9.73;;;1.00;97.60;;;;;;2073671;28;20222;-64
2021/10/10 04:52:30;;;;;;;14.20;9.17;;;1.10;97.60;;;;;;2065203;28;20585;-65
2021/10/10 04:53:31;;;;;;;16.70;9.35;;;1.00;97.50;;;;;;2065344;28;20186;-65
2021/10/10 04:54:34;;;;;;;19.17;9.90;;;1.10;97.30;;;;;;2073185;28;20614;-64
2021/10/10 04:55:34;;;;;;;19.52;10.48;;;1.00;97.40;;;;;;2073193;28;20184;-65
2021/10/10 04:56:35;;;;;;;16.93;10.47;;;1.00;97.50;;;;;;2073769;28;20181;-64
2021/10/10 04:57:35;;;;;;;21.33;10.97;;;1.00;97.60;;;;;;2073836;28;20223;-64
2021/10/10 04:58:36;;;;;;;18.60;10.10;;;1.00;97.70;;;;;;2073824;28;20181;-66
2021/10/10 04:59:37;;;;;;;19.73;11.63;;;0.90;97.80;;;;;;2073752;28;20194;-65
2021/10/10 05:00:37;;;;;;;18.67;11.70;;;0.90;98.00;;;;;;2073837;28;20182;-65
2021/10/10 05:01:38;;;;;;;17.50;11.80;;;0.90;98.20;;;;;;2073504;28;20190;-66
2021/10/10 05:02:39;;;;;;;21.17;11.27;;;0.90;98.30;;;;;;2073784;28;20181;-65
2021/10/10 05:03:40;;;;;;;20.93;11.80;;;0.90;98.30;;;;;;2073736;28;20190;-64
2021/10/10 05:04:40;;;;;;;21.00;11.17;;;0.90;98.30;;;;;;2073873;28;20198;-66
2021/10/10 05:05:41;;;;;;;18.53;10.50;;;0.90;98.30;;;;;;2073676;28;20216;-64
2021/10/10 05:06:42;;;;;;;16.55;9.90;;;0.90;98.20;;;;;;2081202;28;20238;-65
2021/10/10 05:07:43;;;;;;;28.10;10.43;;;0.90;98.10;;;;;;2081427;28;20717;-64
2021/10/10 05:08:43;;;;;;;19.07;10.87;;;0.90;98.00;;;;;;2073726;28;20232;-64
2021/10/10 05:09:44;;;;;;;19.30;11.40;;;1.00;97.80;;;;;;2073688;28;20622;-65
2021/10/10 05:10:45;;;;;;;23.27;11.67;;;1.00;97.80;;;;;;2073775;28;20174;-65
2021/10/10 05:11:46;;;;;;;22.47;11.33;;;1.00;97.80;;;;;;2073428;28;20472;-65
2021/10/10 05:12:46;;;;;;;18.30;10.87;;;1.00;97.70;;;;;;2073745;28;20189;-65
2021/10/10 05:13:47;;;;;;;17.60;10.40;;;1.00;97.70;;;;;;2073586;28;20645;-66
2021/10/10 05:14:48;;;;;;;18.23;10.63;;;1.00;97.50;;;;;;2081393;28;20288;-64
2021/10/10 05:15:48;;;;;;;21.33;11.33;;;1.00;97.30;;;;;;2081872;28;20260;-65
2021/10/10 05:16:49;;;;;;;16.63;9.00;;;1.00;97.20;;;;;;2081910;28;20264;-65
2021/10/10 05:17:50;;;;;;;17.27;9.80;;;1.00;96.90;;;;;;2081868;28;20727;-66
2021/10/10 05:18:50;;;;;;;14.60;9.03;;;1.00;97.40;;;;;;2081818;28;20181;-65